Time;durP1;ratioP1;P1;durP2;ratioP2;P2;SDS_P1;SDS_P2;PMS_P1;PMS_P2;Temp;Humidity;BMP_temperature;BMP_pressure;BME280_temperature;BME280_humidity;BME280_pressure;Samples;Min_cycle;Max_cycle;Signal;HPM_P1;HPM_P2
2021/12/26 00:00:28;;;;;;;10.40;9.60;;;1.20;99.90;;;;;;4952740;29;20278;-69
2021/12/26 00:02:58;;;;;;;10.30;9.60;;;1.30;99.90;;;;;;4930072;29;20699;-71
2021/12/26 00:05:26;;;;;;;9.35;8.75;;;1.20;99.90;;;;;;4932420;29;20278;-69
2021/12/26 00:07:55;;;;;;;9.23;8.57;;;1.20;99.90;;;;;;4937770;29;20633;-70
2021/12/26 00:10:25;;;;;;;11.25;10.13;;;1.30;99.90;;;;;;4937773;29;20318;-69
2021/12/26 00:12:54;;;;;;;10.07;9.27;;;1.20;99.90;;;;;;4937089;29;20208;-69
2021/12/26 00:15:22;;;;;;;10.30;9.60;;;1.20;99.90;;;;;;4937713;29;20234;-69
2021/12/26 00:17:50;;;;;;;10.45;9.75;;;1.10;99.90;;;;;;4937379;29;20286;-69
2021/12/26 00:20:20;;;;;;;9.93;9.23;;;1.10;99.90;;;;;;4929311;29;20300;-69
2021/12/26 00:22:48;;;;;;;10.10;9.30;;;1.10;99.90;;;;;;4920107;29;20232;-70
2021/12/26 00:25:17;;;;;;;10.13;9.43;;;1.10;99.90;;;;;;4918584;29;20193;-69
2021/12/26 00:27:45;;;;;;;10.52;9.73;;;1.00;99.90;;;;;;4918292;29;20232;-67
2021/12/26 00:30:18;;;;;;;10.43;9.70;;;1.00;99.90;;;;;;4918509;29;20252;-70
2021/12/26 00:32:47;;;;;;;10.27;9.50;;;1.00;99.90;;;;;;4918235;29;20284;-70
2021/12/26 00:35:17;;;;;;;11.82;10.82;;;1.00;99.90;;;;;;4933039;29;20255;-70
2021/12/26 00:37:46;;;;;;;10.30;9.50;;;1.10;99.90;;;;;;4937138;29;20263;-70
2021/12/26 00:40:18;;;;;;;11.05;10.23;;;1.20;99.90;;;;;;4937190;29;20236;-70
2021/12/26 00:42:47;;;;;;;10.13;9.32;;;1.20;99.90;;;;;;4936984;29;20674;-69
2021/12/26 00:45:17;;;;;;;10.43;9.48;;;1.10;99.90;;;;;;4937224;29;20712;-71
2021/12/26 00:47:45;;;;;;;11.10;10.20;;;1.10;99.90;;;;;;4936890;29;20267;-71
2021/12/26 00:50:16;;;;;;;10.95;10.15;;;1.10;99.90;;;;;;4931696;29;20240;-70
2021/12/26 00:52:44;;;;;;;11.23;10.32;;;1.10;99.90;;;;;;4934221;29;20196;-71
2021/12/26 00:55:15;;;;;;;11.35;10.45;;;1.10;99.90;;;;;;4936822;29;20263;-70
2021/12/26 00:57:44;;;;;;;11.05;10.15;;;1.10;99.90;;;;;;4936936;29;20283;-69
2021/12/26 01:00:16;;;;;;;11.40;10.45;;;1.00;99.90;;;;;;4936558;29;20267;-71
2021/12/26 01:02:45;;;;;;;10.90;10.00;;;1.20;99.90;;;;;;4936580;29;20227;-71
2021/12/26 01:05:14;;;;;;;12.15;11.15;;;1.20;99.90;;;;;;4936487;29;20196;-71
2021/12/26 01:07:54;;;;;;;12.18;11.27;;;1.20;99.90;;;;;;4935655;29;20660;-70
2021/12/26 01:10:23;;;;;;;9.98;9.20;;;1.20;99.90;;;;;;4922680;29;20280;-70
2021/12/26 01:12:52;;;;;;;11.05;10.15;;;1.20;99.90;;;;;;4916947;29;20224;-70
2021/12/26 01:15:23;;;;;;;12.13;11.23;;;1.10;99.90;;;;;;4900330;29;20253;-70
2021/12/26 01:17:57;;;;;;;11.55;10.70;;;1.10;99.90;;;;;;4917477;29;20201;-68
2021/12/26 01:20:41;;;;;;;12.13;11.13;;;1.10;99.90;;;;;;4931206;29;20259;-71
2021/12/26 01:23:10;;;;;;;12.98;11.98;;;1.10;99.90;;;;;;4928255;29;20582;-71
2021/12/26 01:25:38;;;;;;;11.30;10.50;;;1.10;99.90;;;;;;4936209;29;20326;-71
2021/12/26 01:28:07;;;;;;;12.15;11.18;;;1.10;99.90;;;;;;4936253;29;20255;-71
2021/12/26 01:30:38;;;;;;;12.10;10.98;;;1.10;99.90;;;;;;4936282;29;20275;-72
2021/12/26 01:33:09;;;;;;;11.15;10.15;;;1.00;99.90;;;;;;4936226;29;20207;-70
2021/12/26 01:35:37;;;;;;;11.15;10.25;;;1.00;99.90;;;;;;4936156;29;20262;-71
2021/12/26 01:38:06;;;;;;;12.90;11.90;;;1.00;99.90;;;;;;4935551;29;20220;-71
2021/12/26 01:40:37;;;;;;;12.52;11.52;;;1.10;99.90;;;;;;4936120;29;20302;-70
2021/12/26 01:43:06;;;;;;;12.18;11.18;;;1.10;99.90;;;;;;4936078;29;20623;-71
2021/12/26 01:45:34;;;;;;;13.02;11.90;;;1.10;99.90;;;;;;4936094;29;20232;-71
2021/12/26 01:48:05;;;;;;;11.63;10.73;;;1.20;99.90;;;;;;4935820;29;20291;-71
2021/12/26 01:50:36;;;;;;;11.38;10.48;;;1.20;99.90;;;;;;4928537;29;20271;-71
2021/12/26 01:53:05;;;;;;;11.25;10.43;;;1.10;99.90;;;;;;4905624;29;20202;-71
2021/12/26 01:55:41;;;;;;;11.90;10.90;;;1.00;99.90;;;;;;4935796;29;20263;-71
2021/12/26 01:58:11;;;;;;;13.45;12.35;;;1.00;99.90;;;;;;4935911;29;20235;-71
2021/12/26 02:00:43;;;;;;;13.85;12.65;;;1.00;99.90;;;;;;4935414;29;20290;-71
2021/12/26 02:03:11;;;;;;;12.85;11.85;;;1.20;99.90;;;;;;4935489;29;20215;-71
2021/12/26 02:05:40;;;;;;;12.50;11.40;;;1.20;99.90;;;;;;4935680;29;20251;-71
2021/12/26 02:08:09;;;;;;;13.23;12.20;;;1.20;99.90;;;;;;4935338;29;20681;-68
2021/12/26 02:10:37;;;;;;;13.40;12.40;;;1.20;99.90;;;;;;4935574;29;20248;-70
2021/12/26 02:13:06;;;;;;;12.10;11.20;;;1.30;99.90;;;;;;4932070;29;20793;-69
2021/12/26 02:15:34;;;;;;;10.85;10.05;;;1.40;99.90;;;;;;4926944;29;20299;-69
2021/12/26 02:18:03;;;;;;;11.32;10.43;;;1.40;99.90;;;;;;4919327;29;20730;-70
2021/12/26 02:20:39;;;;;;;12.50;11.43;;;1.40;99.90;;;;;;4928160;29;20255;-70
2021/12/26 02:23:13;;;;;;;12.27;11.23;;;1.30;99.90;;;;;;4927349;29;20231;-70
2021/12/26 02:28:35;;;;;;;11.80;10.90;;;1.40;99.90;;;;;;4901077;29;20634;-68
2021/12/26 02:31:03;;;;;;;12.20;11.23;;;1.30;99.90;;;;;;4934813;29;20307;-71
2021/12/26 02:33:31;;;;;;;12.45;11.48;;;1.20;99.90;;;;;;4934927;29;20736;-72
2021/12/26 02:36:01;;;;;;;13.20;12.00;;;1.20;99.90;;;;;;4935120;29;20279;-72
2021/12/26 02:38:29;;;;;;;12.90;11.90;;;1.30;99.90;;;;;;4934638;29;20208;-71
2021/12/26 02:40:58;;;;;;;10.80;10.00;;;1.30;99.90;;;;;;4934833;29;20974;-72
2021/12/26 02:43:29;;;;;;;12.35;11.35;;;1.30;99.90;;;;;;4934798;29;20386;-71
2021/12/26 02:45:57;;;;;;;12.55;11.45;;;1.40;99.90;;;;;;4934916;29;20680;-71
2021/12/26 02:48:25;;;;;;;13.10;12.10;;;1.30;99.90;;;;;;4934643;29;20208;-70
2021/12/26 02:50:56;;;;;;;12.77;11.70;;;1.20;99.90;;;;;;4926697;29;20327;-70
2021/12/26 02:53:25;;;;;;;12.98;11.98;;;1.10;99.90;;;;;;4934256;29;20624;-72
2021/12/26 02:55:56;;;;;;;11.25;10.35;;;1.10;99.90;;;;;;4934674;29;20709;-71
2021/12/26 02:58:24;;;;;;;11.80;10.90;;;1.20;99.90;;;;;;4934842;29;20236;-70
2021/12/26 03:00:54;;;;;;;12.48;11.52;;;1.20;99.90;;;;;;4934383;29;20326;-72
2021/12/26 03:03:22;;;;;;;12.63;11.63;;;1.20;99.90;;;;;;4934477;29;20251;-71
2021/12/26 03:05:57;;;;;;;12.70;11.70;;;1.20;99.90;;;;;;4934559;29;20290;-71
2021/12/26 03:08:26;;;;;;;12.70;11.80;;;1.10;99.90;;;;;;4934752;29;20239;-69
2021/12/26 03:10:54;;;;;;;12.80;11.73;;;1.10;99.90;;;;;;4934359;29;20674;-71
2021/12/26 03:13:23;;;;;;;12.30;11.20;;;1.00;99.90;;;;;;4934171;29;20204;-72
2021/12/26 03:15:51;;;;;;;12.85;11.85;;;1.00;99.90;;;;;;4934502;29;20321;-71
2021/12/26 03:18:19;;;;;;;12.75;11.77;;;1.10;99.90;;;;;;4934316;29;20200;-72
2021/12/26 03:20:50;;;;;;;13.00;11.90;;;1.10;99.90;;;;;;4928368;29;20290;-71
2021/12/26 03:23:20;;;;;;;12.45;11.45;;;1.10;99.90;;;;;;4934175;29;20259;-70
2021/12/26 03:25:50;;;;;;;14.18;12.98;;;1.20;99.90;;;;;;4934379;29;20685;-71
2021/12/26 03:28:18;;;;;;;14.50;13.25;;;1.10;99.90;;;;;;4934375;29;20624;-70
2021/12/26 03:30:46;;;;;;;12.02;11.02;;;1.10;99.90;;;;;;4933978;29;20311;-70
2021/12/26 03:33:15;;;;;;;13.35;12.35;;;1.10;99.90;;;;;;4933982;29;20692;-70
2021/12/26 03:35:43;;;;;;;14.52;13.23;;;1.30;99.90;;;;;;4934209;29;20295;-69
2021/12/26 03:38:12;;;;;;;13.65;12.55;;;1.30;99.90;;;;;;4933804;29;20238;-71
2021/12/26 03:40:41;;;;;;;13.48;12.38;;;1.20;99.90;;;;;;4934024;29;20228;-71
2021/12/26 03:43:12;;;;;;;13.07;11.98;;;1.20;99.90;;;;;;4933842;29;20246;-70
2021/12/26 03:45:41;;;;;;;13.88;12.68;;;1.10;99.90;;;;;;4934337;29;20630;-71
2021/12/26 03:48:09;;;;;;;13.30;12.20;;;1.10;99.90;;;;;;4934082;29;20207;-71
2021/12/26 03:50:39;;;;;;;13.88;12.70;;;1.10;99.90;;;;;;4925954;29;20312;-69
2021/12/26 03:53:07;;;;;;;13.73;12.57;;;1.10;99.90;;;;;;4933267;29;20274;-70
2021/12/26 03:55:35;;;;;;;14.43;13.15;;;1.00;99.90;;;;;;4933774;29;20211;-70
2021/12/26 03:58:03;;;;;;;13.70;12.50;;;1.20;99.90;;;;;;4933986;29;20287;-70
2021/12/26 04:00:32;;;;;;;14.52;13.32;;;1.50;99.90;;;;;;4933582;29;20263;-70
2021/12/26 04:03:00;;;;;;;13.70;12.40;;;1.70;99.90;;;;;;4933729;29;20669;-71
2021/12/26 04:05:28;;;;;;;13.48;12.30;;;1.60;99.90;;;;;;4933903;29;20199;-70
2021/12/26 04:07:56;;;;;;;13.88;12.77;;;1.50;99.90;;;;;;4933660;29;20231;-70
2021/12/26 04:10:24;;;;;;;12.07;11.07;;;1.60;99.90;;;;;;4933574;29;20224;-71
2021/12/26 04:12:54;;;;;;;12.82;11.63;;;1.40;99.90;;;;;;4933584;29;20200;-70
2021/12/26 04:15:24;;;;;;;13.80;12.55;;;1.30;99.90;;;;;;4933781;29;20249;-70
2021/12/26 04:17:57;;;;;;;12.77;11.73;;;1.30;99.90;;;;;;4933701;29;20652;-68
2021/12/26 04:20:25;;;;;;;13.63;12.55;;;1.20;99.90;;;;;;4927802;29;20260;-69
2021/12/26 04:22:54;;;;;;;12.02;11.13;;;1.20;99.90;;;;;;4915695;29;20733;-69
2021/12/26 04:25:22;;;;;;;13.90;12.70;;;1.20;99.90;;;;;;4917123;29;20291;-69
2021/12/26 04:27:51;;;;;;;13.65;12.55;;;1.20;99.90;;;;;;4924002;29;20201;-69
2021/12/26 04:30:21;;;;;;;13.50;12.30;;;1.20;99.90;;;;;;4914299;29;20311;-68
2021/12/26 04:32:50;;;;;;;14.18;12.77;;;1.20;99.90;;;;;;4914541;29;20205;-69
2021/12/26 04:35:20;;;;;;;14.55;13.30;;;1.30;99.90;;;;;;4915297;29;20288;-69
2021/12/26 04:37:48;;;;;;;13.15;12.00;;;1.20;99.90;;;;;;4933730;29;20656;-69
2021/12/26 04:40:18;;;;;;;13.73;12.63;;;1.20;99.90;;;;;;4934378;29;20252;-69
2021/12/26 04:42:46;;;;;;;12.93;11.88;;;1.20;99.90;;;;;;4933396;29;20236;-69
2021/12/26 04:45:15;;;;;;;13.55;12.48;;;1.10;99.90;;;;;;4933342;29;20200;-69
2021/12/26 04:47:45;;;;;;;13.23;12.20;;;1.20;99.90;;;;;;4933292;29;20247;-70
2021/12/26 04:50:16;;;;;;;12.65;11.55;;;1.40;99.90;;;;;;4931991;29;20221;-69
2021/12/26 04:52:45;;;;;;;12.82;11.82;;;1.40;99.90;;;;;;4932687;29;20232;-69
2021/12/26 04:55:15;;;;;;;13.70;12.57;;;1.30;99.90;;;;;;4936926;29;20232;-69
2021/12/26 04:57:43;;;;;;;13.68;12.45;;;1.20;99.90;;;;;;4936893;29;20243;-69
2021/12/26 05:00:14;;;;;;;13.35;12.25;;;1.10;99.90;;;;;;4936420;29;20667;-69
2021/12/26 05:02:43;;;;;;;12.82;11.70;;;1.10;99.90;;;;;;4936862;29;20236;-69
2021/12/26 05:05:12;;;;;;;14.68;13.38;;;1.10;99.90;;;;;;4936734;29;20232;-70
2021/12/26 05:07:41;;;;;;;13.05;11.95;;;1.20;99.90;;;;;;4936858;29;20741;-69
2021/12/26 05:10:14;;;;;;;12.60;11.60;;;1.10;99.90;;;;;;4936332;29;20275;-70
2021/12/26 05:12:42;;;;;;;14.13;12.90;;;1.30;99.90;;;;;;4936545;29;20250;-69
2021/12/26 05:15:13;;;;;;;14.43;13.23;;;1.30;99.90;;;;;;4936509;29;20218;-69
2021/12/26 05:17:45;;;;;;;14.40;13.10;;;1.20;99.90;;;;;;4936633;29;20648;-69
2021/12/26 05:20:13;;;;;;;12.98;11.95;;;1.30;99.90;;;;;;4932124;29;20246;-69
2021/12/26 05:22:41;;;;;;;13.98;12.80;;;1.30;99.90;;;;;;4933396;29;20579;-70
2021/12/26 05:25:11;;;;;;;14.93;13.63;;;1.40;99.90;;;;;;4919052;29;20238;-70
2021/12/26 05:27:40;;;;;;;13.52;12.43;;;1.40;99.90;;;;;;4936061;29;20228;-70
2021/12/26 05:30:10;;;;;;;13.75;12.65;;;1.30;99.90;;;;;;4936273;29;20247;-69
2021/12/26 05:32:39;;;;;;;14.68;13.40;;;1.20;99.90;;;;;;4921608;29;20236;-70
2021/12/26 05:35:08;;;;;;;14.00;12.70;;;1.20;99.90;;;;;;4936062;29;20312;-69
2021/12/26 05:37:37;;;;;;;13.48;12.27;;;1.30;99.90;;;;;;4936115;29;20251;-68
2021/12/26 05:40:07;;;;;;;13.48;12.38;;;1.30;99.90;;;;;;4936011;29;20254;-70
2021/12/26 05:42:36;;;;;;;12.90;11.80;;;1.20;99.90;;;;;;4935955;29;20251;-69
2021/12/26 05:45:07;;;;;;;13.65;12.55;;;1.20;99.90;;;;;;4935681;29;20231;-70
2021/12/26 05:47:35;;;;;;;14.93;13.70;;;1.20;99.90;;;;;;4936135;29;20676;-69
2021/12/26 05:50:06;;;;;;;15.88;14.45;;;1.30;99.90;;;;;;4944922;29;20254;-69
2021/12/26 05:52:34;;;;;;;16.30;14.95;;;1.20;99.90;;;;;;4947385;29;20666;-68
2021/12/26 05:55:02;;;;;;;14.40;13.20;;;1.30;99.90;;;;;;4954726;29;20827;-68
2021/12/26 05:57:30;;;;;;;13.60;12.50;;;1.40;99.90;;;;;;4954910;29;20274;-68
2021/12/26 05:59:59;;;;;;;13.20;12.07;;;1.30;99.90;;;;;;4954585;28;20247;-69
2021/12/26 06:02:27;;;;;;;15.95;14.60;;;1.20;99.90;;;;;;4941424;29;20636;-66
2021/12/26 06:04:55;;;;;;;14.25;13.10;;;1.10;99.90;;;;;;4935576;29;20192;-69
2021/12/26 06:07:23;;;;;;;14.38;13.18;;;1.10;99.90;;;;;;4935458;29;20231;-69
2021/12/26 06:09:51;;;;;;;15.82;14.23;;;1.10;99.90;;;;;;4935552;29;20290;-69
2021/12/26 06:12:19;;;;;;;14.20;12.90;;;1.10;99.90;;;;;;4935303;29;20232;-69
2021/12/26 06:14:47;;;;;;;14.50;13.30;;;1.20;99.90;;;;;;4935294;29;20283;-69
2021/12/26 06:17:16;;;;;;;14.48;13.18;;;1.20;99.90;;;;;;4935512;29;20255;-70
2021/12/26 06:19:44;;;;;;;14.88;13.55;;;1.20;99.90;;;;;;4934091;29;20236;-69
2021/12/26 06:22:12;;;;;;;13.32;12.13;;;1.10;99.90;;;;;;4928938;29;20290;-69
2021/12/26 06:24:40;;;;;;;14.13;12.88;;;1.10;99.90;;;;;;4931939;29;20743;-66
2021/12/26 06:27:08;;;;;;;13.98;12.80;;;1.10;99.90;;;;;;4915744;29;20232;-68
2021/12/26 06:29:36;;;;;;;14.40;13.20;;;1.30;99.90;;;;;;4924392;29;20262;-68
2021/12/26 06:32:04;;;;;;;13.90;12.70;;;1.30;99.90;;;;;;4932956;29;20220;-69
2021/12/26 06:34:34;;;;;;;14.68;13.38;;;1.30;99.90;;;;;;4933285;29;20266;-69
2021/12/26 06:37:02;;;;;;;15.30;14.00;;;1.30;99.90;;;;;;4932034;29;20225;-69
2021/12/26 06:39:29;;;;;;;12.93;11.88;;;1.30;99.90;;;;;;4925846;29;20257;-69
2021/12/26 06:41:57;;;;;;;14.48;13.18;;;1.20;99.90;;;;;;4916775;29;20279;-69
2021/12/26 06:44:25;;;;;;;16.27;14.88;;;1.20;99.90;;;;;;4915364;29;20288;-69
2021/12/26 06:46:53;;;;;;;14.60;13.40;;;1.20;99.90;;;;;;4922756;29;20283;-69
2021/12/26 06:49:21;;;;;;;14.13;12.93;;;1.20;99.90;;;;;;4922121;29;20299;-69
2021/12/26 06:51:51;;;;;;;13.57;12.38;;;1.20;99.90;;;;;;4929158;29;20283;-68
2021/12/26 06:54:19;;;;;;;13.50;12.35;;;1.10;99.90;;;;;;4920832;29;20248;-70
2021/12/26 06:56:46;;;;;;;14.07;12.57;;;1.10;99.90;;;;;;4931094;29;20240;-70
2021/12/26 06:59:15;;;;;;;13.77;12.55;;;1.10;99.90;;;;;;4932566;29;20216;-71
2021/12/26 07:01:43;;;;;;;13.73;12.52;;;1.20;99.90;;;;;;4933009;29;20588;-69
2021/12/26 07:04:11;;;;;;;14.50;13.30;;;1.20;99.90;;;;;;4927112;29;20209;-68
2021/12/26 07:06:40;;;;;;;14.63;13.35;;;1.10;99.90;;;;;;4914856;29;20257;-69
2021/12/26 07:09:09;;;;;;;14.25;13.05;;;1.10;99.90;;;;;;4915127;29;20224;-69
2021/12/26 07:11:37;;;;;;;13.07;11.98;;;1.10;99.90;;;;;;4914395;29;20318;-69
2021/12/26 07:14:05;;;;;;;13.20;12.10;;;1.00;99.90;;;;;;4917912;29;20619;-68
2021/12/26 07:16:32;;;;;;;16.40;14.70;;;1.00;99.90;;;;;;4914925;29;20232;-68
2021/12/26 07:19:00;;;;;;;13.40;12.30;;;1.20;99.90;;;;;;4923990;29;20258;-69
2021/12/26 07:21:28;;;;;;;13.68;12.38;;;1.30;99.90;;;;;;4925405;29;20204;-68
2021/12/26 07:23:56;;;;;;;13.80;12.57;;;1.20;99.90;;;;;;4932350;29;20291;-70
2021/12/26 07:26:25;;;;;;;15.07;13.77;;;1.20;99.90;;;;;;4931684;29;20846;-70
2021/12/26 07:28:53;;;;;;;13.85;12.65;;;1.10;99.90;;;;;;4914787;29;20280;-69
2021/12/26 07:31:21;;;;;;;15.10;13.82;;;1.00;99.90;;;;;;4926098;29;20279;-71
2021/12/26 07:33:49;;;;;;;15.10;13.80;;;1.00;99.90;;;;;;4922825;29;20283;-71
2021/12/26 07:36:18;;;;;;;16.10;14.70;;;1.00;99.90;;;;;;4914461;29;20232;-71
2021/12/26 07:38:45;;;;;;;14.95;13.75;;;1.00;99.90;;;;;;4927889;29;20247;-72
2021/12/26 07:41:22;;;;;;;13.07;11.93;;;1.00;99.90;;;;;;4932577;29;20227;-72
2021/12/26 07:43:51;;;;;;;14.43;13.15;;;1.00;99.90;;;;;;4930527;29;20623;-71
2021/12/26 07:46:19;;;;;;;13.60;12.40;;;1.00;99.90;;;;;;4922588;29;20271;-71
2021/12/26 07:48:47;;;;;;;13.63;12.43;;;1.00;99.90;;;;;;4918900;29;20193;-71
2021/12/26 07:51:16;;;;;;;13.23;12.05;;;1.00;99.90;;;;;;4925865;29;20240;-71
2021/12/26 07:53:43;;;;;;;14.27;12.98;;;1.00;99.90;;;;;;4918300;29;20232;-71
2021/12/26 07:56:11;;;;;;;11.70;10.68;;;1.00;99.90;;;;;;4924278;29;20300;-72
2021/12/26 07:58:39;;;;;;;14.55;13.27;;;1.00;99.90;;;;;;4914417;29;20272;-72
2021/12/26 08:01:08;;;;;;;13.18;12.10;;;1.00;99.90;;;;;;4914160;29;20314;-71
2021/12/26 08:03:37;;;;;;;14.00;12.80;;;1.00;99.90;;;;;;4914063;29;20621;-72
2021/12/26 08:06:07;;;;;;;14.88;13.48;;;1.00;99.90;;;;;;4917846;29;20993;-72
2021/12/26 08:08:35;;;;;;;14.30;13.10;;;1.00;99.90;;;;;;4914417;29;20232;-72
2021/12/26 08:11:03;;;;;;;13.27;12.15;;;1.00;99.90;;;;;;4927254;29;20309;-69
2021/12/26 08:13:34;;;;;;;13.90;12.70;;;1.10;99.90;;;;;;4923413;29;20215;-69
2021/12/26 08:16:02;;;;;;;13.68;12.48;;;1.10;99.90;;;;;;4931416;29;20659;-70
2021/12/26 08:18:31;;;;;;;13.60;12.50;;;1.10;99.90;;;;;;4930764;29;20989;-71
2021/12/26 08:20:59;;;;;;;14.40;13.20;;;1.00;99.90;;;;;;4919978;29;20228;-71
2021/12/26 08:23:27;;;;;;;13.32;12.23;;;1.00;99.90;;;;;;4921095;29;20231;-70
2021/12/26 08:25:55;;;;;;;13.50;12.32;;;1.10;99.90;;;;;;4920606;29;20200;-70
2021/12/26 08:28:24;;;;;;;14.45;13.25;;;1.00;99.90;;;;;;4926936;29;20228;-69
2021/12/26 08:30:52;;;;;;;14.30;13.05;;;1.10;99.90;;;;;;4932597;29;20224;-69
2021/12/26 08:33:20;;;;;;;12.73;11.55;;;1.10;99.90;;;;;;4917694;29;20215;-70
2021/12/26 08:35:50;;;;;;;14.75;13.35;;;1.20;99.90;;;;;;4927854;29;20291;-72
2021/12/26 08:38:21;;;;;;;14.77;13.38;;;1.20;99.90;;;;;;4926851;29;20307;-72
2021/12/26 08:40:49;;;;;;;15.23;13.93;;;1.20;99.90;;;;;;4934674;29;20383;-72
2021/12/26 08:43:18;;;;;;;14.10;12.85;;;1.20;99.90;;;;;;4923410;29;20279;-71
2021/12/26 08:45:48;;;;;;;14.13;12.88;;;1.10;99.90;;;;;;4931719;29;20741;-70
2021/12/26 08:48:16;;;;;;;13.10;11.80;;;1.20;99.90;;;;;;4933655;29;20322;-72
2021/12/26 08:50:46;;;;;;;12.90;11.70;;;1.20;99.90;;;;;;4926613;29;20228;-70
2021/12/26 08:53:15;;;;;;;15.63;14.27;;;1.20;99.90;;;;;;4927017;29;20236;-72
2021/12/26 08:55:43;;;;;;;15.00;13.60;;;1.20;99.90;;;;;;4930673;29;20208;-71
2021/12/26 08:58:11;;;;;;;16.10;14.60;;;1.10;99.90;;;;;;4917658;29;20611;-69
2021/12/26 09:00:39;;;;;;;14.98;13.48;;;1.10;99.90;;;;;;4924158;29;20322;-70
2021/12/26 09:03:07;;;;;;;15.18;13.77;;;1.10;99.90;;;;;;4925698;29;20251;-70
2021/12/26 09:05:36;;;;;;;15.00;13.75;;;1.10;99.90;;;;;;4917015;29;20905;-70
2021/12/26 09:08:06;;;;;;;15.88;14.35;;;1.20;99.90;;;;;;4917165;29;20288;-70
2021/12/26 09:10:35;;;;;;;15.75;14.35;;;1.20;99.90;;;;;;4916695;29;20220;-70
2021/12/26 09:13:04;;;;;;;15.18;13.68;;;1.30;99.90;;;;;;4916846;29;20288;-71
2021/12/26 09:15:32;;;;;;;16.65;15.15;;;1.30;99.90;;;;;;4932160;29;20199;-70
2021/12/26 09:18:00;;;;;;;16.30;14.77;;;1.30;99.90;;;;;;4937619;29;20238;-71
2021/12/26 09:20:29;;;;;;;16.00;14.50;;;1.30;99.90;;;;;;4929807;29;20256;-69
2021/12/26 09:22:56;;;;;;;15.75;14.40;;;1.40;99.90;;;;;;4934782;29;20260;-70
2021/12/26 09:25:25;;;;;;;16.15;14.75;;;1.30;99.90;;;;;;4936597;29;20227;-68
2021/12/26 09:27:54;;;;;;;16.60;15.20;;;1.40;99.90;;;;;;4936400;29;20228;-71
2021/12/26 09:30:23;;;;;;;14.93;13.63;;;1.30;99.90;;;;;;4936404;29;20251;-70
2021/12/26 09:32:51;;;;;;;16.20;14.60;;;1.40;99.90;;;;;;4936100;29;20652;-71
2021/12/26 09:35:19;;;;;;;15.40;14.10;;;1.40;99.90;;;;;;4919765;29;20241;-71
2021/12/26 09:37:48;;;;;;;15.02;13.60;;;1.40;99.90;;;;;;4929815;29;20235;-71
2021/12/26 09:40:17;;;;;;;15.30;13.80;;;1.30;99.90;;;;;;4931511;29;20315;-70
2021/12/26 09:42:46;;;;;;;16.60;15.05;;;1.30;99.90;;;;;;4944455;29;20244;-69
2021/12/26 09:45:16;;;;;;;17.10;15.50;;;1.30;99.90;;;;;;4950868;29;20232;-70
2021/12/26 09:47:45;;;;;;;16.20;14.70;;;1.30;99.90;;;;;;4925259;29;20279;-71
2021/12/26 09:50:14;;;;;;;16.48;14.88;;;1.40;99.90;;;;;;4929170;29;20298;-72
2021/12/26 09:52:43;;;;;;;15.10;13.70;;;1.40;99.90;;;;;;4933092;29;20696;-72
2021/12/26 09:55:11;;;;;;;15.52;13.93;;;1.40;99.90;;;;;;4932093;29;20228;-71
2021/12/26 09:57:39;;;;;;;16.33;14.65;;;1.40;99.90;;;;;;4925158;29;20283;-73
2021/12/26 10:00:27;;;;;;;16.48;14.88;;;1.30;99.90;;;;;;4923245;29;20296;-72
2021/12/26 10:03:19;;;;;;;15.23;13.95;;;1.30;99.90;;;;;;4916691;29;20225;-67
2021/12/26 10:06:13;;;;;;;17.42;15.63;;;1.30;99.90;;;;;;4923910;29;20208;-70
2021/12/26 10:08:53;;;;;;;16.05;14.55;;;1.40;99.90;;;;;;4922961;29;20258;-70
2021/12/26 10:11:24;;;;;;;15.88;14.38;;;1.30;99.90;;;;;;4936632;29;20729;-70
2021/12/26 10:13:55;;;;;;;16.15;14.65;;;1.30;99.90;;;;;;4920537;29;20318;-70
2021/12/26 10:16:26;;;;;;;14.98;13.73;;;1.40;99.90;;;;;;4929651;29;21027;-69
2021/12/26 10:18:55;;;;;;;17.02;15.43;;;1.40;99.90;;;;;;4914503;29;20280;-68
2021/12/26 10:21:25;;;;;;;15.40;14.00;;;1.40;99.90;;;;;;4928416;29;20322;-68
2021/12/26 10:23:54;;;;;;;16.92;15.35;;;1.40;99.90;;;;;;4924391;29;20211;-68
2021/12/26 10:26:23;;;;;;;14.68;13.38;;;1.50;99.90;;;;;;4921691;29;20251;-69
2021/12/26 10:29:12;;;;;;;15.75;14.35;;;1.50;99.90;;;;;;4912628;29;20243;-67
2021/12/26 10:31:46;;;;;;;16.45;14.95;;;1.50;99.90;;;;;;4910675;29;20205;-68
2021/12/26 10:34:21;;;;;;;15.70;14.20;;;1.60;99.90;;;;;;4923455;29;20219;-67
2021/12/26 10:36:50;;;;;;;14.77;13.38;;;1.50;99.90;;;;;;4921334;29;20242;-68
2021/12/26 10:39:21;;;;;;;15.57;14.18;;;1.60;99.90;;;;;;4934488;29;20216;-66
2021/12/26 10:41:51;;;;;;;15.48;14.05;;;1.60;99.90;;;;;;4934141;29;20243;-69
2021/12/26 10:44:21;;;;;;;16.30;14.80;;;1.60;99.90;;;;;;4934822;29;20324;-69
2021/12/26 10:46:54;;;;;;;15.45;14.15;;;1.60;99.90;;;;;;4933759;29;20270;-70
2021/12/26 10:49:30;;;;;;;16.83;15.23;;;1.60;99.90;;;;;;4933998;29;20589;-69
2021/12/26 10:52:00;;;;;;;17.70;16.13;;;1.60;99.90;;;;;;4927133;29;20212;-70
2021/12/26 10:54:31;;;;;;;16.70;15.20;;;1.60;99.90;;;;;;4918057;29;20883;-69
2021/12/26 10:57:04;;;;;;;18.63;16.90;;;1.50;99.90;;;;;;4929431;29;20723;-68
2021/12/26 10:59:32;;;;;;;18.35;16.63;;;1.60;99.90;;;;;;4933018;29;20295;-69
2021/12/26 11:02:01;;;;;;;18.85;17.05;;;1.60;99.90;;;;;;4928452;29;20223;-70
2021/12/26 11:04:29;;;;;;;17.73;16.02;;;1.50;99.90;;;;;;4919175;29;20204;-69
2021/12/26 11:06:59;;;;;;;20.40;18.60;;;1.50;99.90;;;;;;4914601;29;20242;-69
2021/12/26 11:09:27;;;;;;;18.85;16.85;;;1.60;99.90;;;;;;4915008;29;20340;-69
2021/12/26 11:12:04;;;;;;;18.10;16.35;;;1.60;99.90;;;;;;4928214;29;20224;-69
2021/12/26 11:14:33;;;;;;;20.08;18.05;;;1.50;99.90;;;;;;4932901;29;20200;-68
2021/12/26 11:17:02;;;;;;;19.58;17.77;;;1.60;99.90;;;;;;4914774;29;20205;-68
2021/12/26 11:19:42;;;;;;;19.52;17.73;;;1.60;99.90;;;;;;4922699;29;20256;-68
2021/12/26 11:22:10;;;;;;;19.80;18.00;;;1.60;99.90;;;;;;4923646;29;20228;-70
2021/12/26 11:24:38;;;;;;;19.15;17.35;;;1.50;99.90;;;;;;4914845;29;20287;-69
2021/12/26 11:27:07;;;;;;;19.25;17.38;;;1.60;99.90;;;;;;4918219;29;20220;-69
2021/12/26 11:29:35;;;;;;;19.55;17.48;;;1.60;99.90;;;;;;4914626;29;20624;-70
2021/12/26 11:32:06;;;;;;;20.05;18.15;;;1.60;99.90;;;;;;4914305;29;20283;-69
2021/12/26 11:34:38;;;;;;;19.25;17.45;;;1.60;99.90;;;;;;4914651;29;20303;-71
2021/12/26 11:37:06;;;;;;;20.25;18.10;;;1.60;99.90;;;;;;4923983;29;20231;-68
2021/12/26 11:39:37;;;;;;;21.13;19.13;;;1.50;99.90;;;;;;4947098;29;20298;-67
2021/12/26 11:42:22;;;;;;;21.63;19.33;;;1.60;99.90;;;;;;4921207;29;20761;-68
2021/12/26 11:45:06;;;;;;;21.75;19.52;;;1.50;99.90;;;;;;4936428;29;20239;-67
2021/12/26 11:47:58;;;;;;;21.83;19.73;;;1.50;99.90;;;;;;4950349;29;20203;-67
2021/12/26 11:50:38;;;;;;;23.85;21.55;;;1.50;99.90;;;;;;4930542;29;20336;-68
2021/12/26 11:53:27;;;;;;;23.70;21.30;;;1.50;99.90;;;;;;4929448;29;20226;-68
2021/12/26 11:56:13;;;;;;;22.35;20.02;;;1.50;99.90;;;;;;4940195;29;20231;-68
2021/12/26 11:58:57;;;;;;;23.52;21.05;;;1.50;99.90;;;;;;4920600;29;20231;-68
2021/12/26 12:01:26;;;;;;;22.38;20.10;;;1.50;99.90;;;;;;4937424;29;20772;-69
2021/12/26 12:04:17;;;;;;;22.90;20.58;;;1.60;99.90;;;;;;4956287;28;20209;-68
2021/12/26 12:06:46;;;;;;;23.75;21.30;;;1.60;99.90;;;;;;4947258;29;20234;-68
2021/12/26 12:09:28;;;;;;;22.45;20.15;;;1.50;99.90;;;;;;4931761;29;20689;-68
2021/12/26 12:12:07;;;;;;;25.58;22.88;;;1.50;99.90;;;;;;4929889;29;20230;-68
2021/12/26 12:14:46;;;;;;;22.52;19.52;;;1.50;99.90;;;;;;4927575;29;20205;-69
2021/12/26 12:17:15;;;;;;;24.42;21.88;;;1.60;99.90;;;;;;4921378;29;20712;-68
2021/12/26 12:20:11;;;;;;;24.05;21.55;;;1.50;99.90;;;;;;4928485;29;20235;-68
2021/12/26 12:22:59;;;;;;;25.77;23.02;;;1.60;99.90;;;;;;4929567;29;20279;-68
2021/12/26 12:25:49;;;;;;;26.20;23.35;;;1.60;99.90;;;;;;4920436;29;20228;-68
2021/12/26 12:28:28;;;;;;;26.08;23.35;;;1.70;99.90;;;;;;4934704;29;20271;-68
2021/12/26 12:30:59;;;;;;;24.63;22.15;;;1.70;99.90;;;;;;4938439;29;20275;-68
2021/12/26 12:33:29;;;;;;;25.73;22.38;;;1.60;99.90;;;;;;4938030;29;20192;-68
2021/12/26 12:36:04;;;;;;;26.38;23.73;;;1.60;99.90;;;;;;4937730;29;20204;-69
2021/12/26 12:38:38;;;;;;;28.13;25.33;;;1.60;99.90;;;;;;4937924;29;20342;-68
2021/12/26 12:41:39;;;;;;;27.15;24.25;;;1.60;99.90;;;;;;4937941;29;20226;-69
2021/12/26 12:44:25;;;;;;;27.40;23.58;;;1.60;99.90;;;;;;4934430;29;20227;-69
2021/12/26 12:46:56;;;;;;;24.30;21.70;;;1.60;99.90;;;;;;4938031;29;20195;-70
2021/12/26 12:49:43;;;;;;;25.23;22.52;;;1.60;99.90;;;;;;4936802;29;20291;-70
2021/12/26 12:52:44;;;;;;;26.33;22.27;;;1.60;99.90;;;;;;5025190;23;20247;-66
2021/12/26 12:55:16;;;;;;;27.38;23.50;;;1.60;99.90;;;;;;4925311;29;20693;-67
2021/12/26 12:57:48;;;;;;;25.10;22.45;;;1.60;99.90;;;;;;4928411;29;20275;-66